sensor_id;sensor_type;location;lat;lon;timestamp;temperature;humidity
9861;DHT22;4969;52.304;4.968;2024-03-02T00:00:36;16.44;60.01
9861;DHT22;4969;52.304;4.968;2024-03-02T00:03:04;16.66;60.15
9861;DHT22;4969;52.304;4.968;2024-03-02T00:05:32;17.17;59.28
9861;DHT22;4969;52.304;4.968;2024-03-02T00:07:59;17.51;58.48
9861;DHT22;4969;52.304;4.968;2024-03-02T00:10:27;16.68;51.74
9861;DHT22;4969;52.304;4.968;2024-03-02T00:12:56;15.41;60.11
9861;DHT22;4969;52.304;4.968;2024-03-02T00:15:40;15.44;60.35
9861;DHT22;4969;52.304;4.968;2024-03-02T00:18:09;16.59;59.09
9861;DHT22;4969;52.304;4.968;2024-03-02T00:20:38;16.57;60.56
9861;DHT22;4969;52.304;4.968;2024-03-02T00:23:07;16.92;54.65
9861;DHT22;4969;52.304;4.968;2024-03-02T00:25:42;16.96;58.98
9861;DHT22;4969;52.304;4.968;2024-03-02T00:28:19;17.07;58.83
9861;DHT22;4969;52.304;4.968;2024-03-02T00:30:54;17.07;58.09
9861;DHT22;4969;52.304;4.968;2024-03-02T00:33:21;16.73;57.31
9861;DHT22;4969;52.304;4.968;2024-03-02T00:35:50;16.49;59.30
9861;DHT22;4969;52.304;4.968;2024-03-02T00:38:17;16.92;59.82
9861;DHT22;4969;52.304;4.968;2024-03-02T00:40:44;16.82;59.75
9861;DHT22;4969;52.304;4.968;2024-03-02T00:46:00;16.59;60.38
9861;DHT22;4969;52.304;4.968;2024-03-02T00:48:27;16.38;60.48
9861;DHT22;4969;52.304;4.968;2024-03-02T00:50:55;16.72;58.58
9861;DHT22;4969;52.304;4.968;2024-03-02T00:53:24;17.26;58.83
9861;DHT22;4969;52.304;4.968;2024-03-02T00:55:52;16.49;58.99
9861;DHT22;4969;52.304;4.968;2024-03-02T00:58:19;16.73;59.96
9861;DHT22;4969;52.304;4.968;2024-03-02T01:00:46;16.26;58.94
9861;DHT22;4969;52.304;4.968;2024-03-02T01:03:12;16.20;58.72
9861;DHT22;4969;52.304;4.968;2024-03-02T01:05:41;16.05;60.76
9861;DHT22;4969;52.304;4.968;2024-03-02T01:08:10;16.10;61.14
9861;DHT22;4969;52.304;4.968;2024-03-02T01:10:36;16.00;60.92
9861;DHT22;4969;52.304;4.968;2024-03-02T01:13:03;15.61;58.51
9861;DHT22;4969;52.304;4.968;2024-03-02T01:15:30;15.71;61.98
9861;DHT22;4969;52.304;4.968;2024-03-02T01:17:56;15.61;58.29
9861;DHT22;4969;52.304;4.968;2024-03-02T01:20:23;15.83;61.39
9861;DHT22;4969;52.304;4.968;2024-03-02T01:22:50;15.45;59.68
9861;DHT22;4969;52.304;4.968;2024-03-02T01:25:18;16.00;60.53
9861;DHT22;4969;52.304;4.968;2024-03-02T01:27:45;15.78;61.96
9861;DHT22;4969;52.304;4.968;2024-03-02T01:30:12;16.27;61.21
9861;DHT22;4969;52.304;4.968;2024-03-02T01:32:38;16.33;61.29
9861;DHT22;4969;52.304;4.968;2024-03-02T01:35:06;16.42;60.80
9861;DHT22;4969;52.304;4.968;2024-03-02T01:37:32;15.66;61.36
9861;DHT22;4969;52.304;4.968;2024-03-02T01:39:59;16.88;59.88
9861;DHT22;4969;52.304;4.968;2024-03-02T01:42:28;16.72;60.01
9861;DHT22;4969;52.304;4.968;2024-03-02T01:44:54;16.99;57.46
9861;DHT22;4969;52.304;4.968;2024-03-02T01:47:21;16.98;56.86
9861;DHT22;4969;52.304;4.968;2024-03-02T01:49:47;16.62;57.96
9861;DHT22;4969;52.304;4.968;2024-03-02T01:52:15;16.98;59.11
9861;DHT22;4969;52.304;4.968;2024-03-02T01:54:41;16.65;59.63
9861;DHT22;4969;52.304;4.968;2024-03-02T01:57:08;17.06;59.41
9861;DHT22;4969;52.304;4.968;2024-03-02T01:59:35;16.91;58.97
9861;DHT22;4969;52.304;4.968;2024-03-02T02:02:02;16.98;56.22
9861;DHT22;4969;52.304;4.968;2024-03-02T02:04:28;16.69;56.63
9861;DHT22;4969;52.304;4.968;2024-03-02T02:06:56;16.52;60.41
9861;DHT22;4969;52.304;4.968;2024-03-02T02:09:22;16.80;57.85
9861;DHT22;4969;52.304;4.968;2024-03-02T02:11:50;17.35;58.09
9861;DHT22;4969;52.304;4.968;2024-03-02T02:14:16;16.95;56.65
9861;DHT22;4969;52.304;4.968;2024-03-02T02:16:45;16.49;59.14
9861;DHT22;4969;52.304;4.968;2024-03-02T02:19:11;17.04;58.82
9861;DHT22;4969;52.304;4.968;2024-03-02T02:21:43;16.96;58.74
9861;DHT22;4969;52.304;4.968;2024-03-02T02:24:10;16.38;58.70
9861;DHT22;4969;52.304;4.968;2024-03-02T02:26:38;16.79;57.91
9861;DHT22;4969;52.304;4.968;2024-03-02T02:29:05;16.80;57.42
9861;DHT22;4969;52.304;4.968;2024-03-02T02:31:36;16.99;56.92
9861;DHT22;4969;52.304;4.968;2024-03-02T02:34:03;16.93;56.97
9861;DHT22;4969;52.304;4.968;2024-03-02T02:36:30;16.55;60.03
9861;DHT22;4969;52.304;4.968;2024-03-02T02:39:00;16.66;58.92
9861;DHT22;4969;52.304;4.968;2024-03-02T02:41:28;17.07;57.22
9861;DHT22;4969;52.304;4.968;2024-03-02T02:43:55;16.98;56.44
9861;DHT22;4969;52.304;4.968;2024-03-02T02:46:21;16.96;57.29
9861;DHT22;4969;52.304;4.968;2024-03-02T02:48:48;16.66;58.09
9861;DHT22;4969;52.304;4.968;2024-03-02T02:51:16;16.85;59.35
9861;DHT22;4969;52.304;4.968;2024-03-02T02:53:43;16.95;57.40
9861;DHT22;4969;52.304;4.968;2024-03-02T02:56:11;16.57;58.50
9861;DHT22;4969;52.304;4.968;2024-03-02T02:58:37;16.66;59.00
9861;DHT22;4969;52.304;4.968;2024-03-02T03:01:04;17.03;58.15
9861;DHT22;4969;52.304;4.968;2024-03-02T03:03:30;17.47;57.29
9861;DHT22;4969;52.304;4.968;2024-03-02T03:05:57;17.44;57.17
9861;DHT22;4969;52.304;4.968;2024-03-02T03:08:23;17.40;57.13
9861;DHT22;4969;52.304;4.968;2024-03-02T03:10:50;16.79;57.13
9861;DHT22;4969;52.304;4.968;2024-03-02T03:13:18;16.31;59.15
9861;DHT22;4969;52.304;4.968;2024-03-02T03:15:45;16.45;58.08
9861;DHT22;4969;52.304;4.968;2024-03-02T03:18:11;16.86;58.78
9861;DHT22;4969;52.304;4.968;2024-03-02T03:20:38;17.06;58.09
9861;DHT22;4969;52.304;4.968;2024-03-02T03:23:04;17.16;57.84
9861;DHT22;4969;52.304;4.968;2024-03-02T03:25:31;17.17;57.11
9861;DHT22;4969;52.304;4.968;2024-03-02T03:27:57;16.82;56.59
9861;DHT22;4969;52.304;4.968;2024-03-02T03:30:25;16.28;59.37
9861;DHT22;4969;52.304;4.968;2024-03-02T03:32:52;16.28;59.17
9861;DHT22;4969;52.304;4.968;2024-03-02T03:35:18;16.47;56.03
9861;DHT22;4969;52.304;4.968;2024-03-02T03:37:45;16.72;58.37
9861;DHT22;4969;52.304;4.968;2024-03-02T03:40:11;15.76;57.38
9861;DHT22;4969;52.304;4.968;2024-03-02T03:42:39;15.76;60.75
9861;DHT22;4969;52.304;4.968;2024-03-02T03:45:07;15.96;59.88
9861;DHT22;4969;52.304;4.968;2024-03-02T03:47:34;16.17;59.66
9861;DHT22;4969;52.304;4.968;2024-03-02T03:50:01;16.98;57.92
9861;DHT22;4969;52.304;4.968;2024-03-02T03:52:32;16.41;58.59
9861;DHT22;4969;52.304;4.968;2024-03-02T03:54:58;16.71;57.20
9861;DHT22;4969;52.304;4.968;2024-03-02T03:57:25;16.13;58.87
9861;DHT22;4969;52.304;4.968;2024-03-02T03:59:51;16.31;58.46
9861;DHT22;4969;52.304;4.968;2024-03-02T04:02:18;16.71;58.97
9861;DHT22;4969;52.304;4.968;2024-03-02T04:04:46;16.17;56.38
9861;DHT22;4969;52.304;4.968;2024-03-02T04:07:12;16.16;59.45
9861;DHT22;4969;52.304;4.968;2024-03-02T04:09:39;15.82;56.69
9861;DHT22;4969;52.304;4.968;2024-03-02T04:12:06;15.97;59.57
9861;DHT22;4969;52.304;4.968;2024-03-02T04:14:32;15.72;60.36
9861;DHT22;4969;52.304;4.968;2024-03-02T04:16:59;15.75;60.56
9861;DHT22;4969;52.304;4.968;2024-03-02T04:19:26;16.75;58.76
9861;DHT22;4969;52.304;4.968;2024-03-02T04:21:53;16.62;55.56
9861;DHT22;4969;52.304;4.968;2024-03-02T04:24:20;16.71;58.54
9861;DHT22;4969;52.304;4.968;2024-03-02T04:26:47;16.65;57.84
9861;DHT22;4969;52.304;4.968;2024-03-02T04:29:13;16.54;58.93
9861;DHT22;4969;52.304;4.968;2024-03-02T04:31:40;16.59;58.65
9861;DHT22;4969;52.304;4.968;2024-03-02T04:34:06;16.12;57.52
9861;DHT22;4969;52.304;4.968;2024-03-02T04:36:33;15.73;60.63
9861;DHT22;4969;52.304;4.968;2024-03-02T04:39:01;16.16;59.14
9861;DHT22;4969;52.304;4.968;2024-03-02T04:41:27;16.65;58.59
9861;DHT22;4969;52.304;4.968;2024-03-02T04:43:54;16.85;57.41
9861;DHT22;4969;52.304;4.968;2024-03-02T04:46:21;16.73;57.79
9861;DHT22;4969;52.304;4.968;2024-03-02T04:48:47;16.59;58.29
9861;DHT22;4969;52.304;4.968;2024-03-02T04:51:20;16.30;59.47
9861;DHT22;4969;52.304;4.968;2024-03-02T04:53:46;16.51;58.77
9861;DHT22;4969;52.304;4.968;2024-03-02T04:56:14;16.05;58.80
9861;DHT22;4969;52.304;4.968;2024-03-02T04:58:55;16.08;58.63
9861;DHT22;4969;52.304;4.968;2024-03-02T05:01:21;16.34;59.42
9861;DHT22;4969;52.304;4.968;2024-03-02T05:03:48;16.23;58.11
9861;DHT22;4969;52.304;4.968;2024-03-02T05:06:15;15.59;60.87
9861;DHT22;4969;52.304;4.968;2024-03-02T05:08:41;15.79;59.79
9861;DHT22;4969;52.304;4.968;2024-03-02T05:11:10;15.87;56.85
9861;DHT22;4969;52.304;4.968;2024-03-02T05:13:55;15.59;61.20
9861;DHT22;4969;52.304;4.968;2024-03-02T05:16:22;15.79;60.41
9861;DHT22;4969;52.304;4.968;2024-03-02T05:18:48;15.16;59.28
9861;DHT22;4969;52.304;4.968;2024-03-02T05:21:15;15.68;60.42
9861;DHT22;4969;52.304;4.968;2024-03-02T05:23:41;15.78;60.62
9861;DHT22;4969;52.304;4.968;2024-03-02T05:26:08;15.71;60.16
9861;DHT22;4969;52.304;4.968;2024-03-02T05:28:36;15.02;58.89
9861;DHT22;4969;52.304;4.968;2024-03-02T05:31:04;14.75;59.29
9861;DHT22;4969;52.304;4.968;2024-03-02T05:33:31;14.75;61.42
9861;DHT22;4969;52.304;4.968;2024-03-02T05:35:58;14.64;62.05
9861;DHT22;4969;52.304;4.968;2024-03-02T05:38:25;14.68;60.65
9861;DHT22;4969;52.304;4.968;2024-03-02T05:40:51;14.67;61.54
9861;DHT22;4969;52.304;4.968;2024-03-02T05:43:18;13.88;59.07
9861;DHT22;4969;52.304;4.968;2024-03-02T05:45:45;14.28;60.58
9861;DHT22;4969;52.304;4.968;2024-03-02T05:48:13;14.60;60.39
9861;DHT22;4969;52.304;4.968;2024-03-02T05:50:39;14.16;60.88
9861;DHT22;4969;52.304;4.968;2024-03-02T05:53:06;13.61;61.75
9861;DHT22;4969;52.304;4.968;2024-03-02T05:55:32;13.13;60.80
9861;DHT22;4969;52.304;4.968;2024-03-02T05:57:59;13.78;66.65
9861;DHT22;4969;52.304;4.968;2024-03-02T06:00:40;13.78;62.40
9861;DHT22;4969;52.304;4.968;2024-03-02T06:03:07;13.78;65.12
9861;DHT22;4969;52.304;4.968;2024-03-02T06:05:36;14.79;63.97
9861;DHT22;4969;52.304;4.968;2024-03-02T06:08:03;14.48;61.86
9861;DHT22;4969;52.304;4.968;2024-03-02T06:10:29;14.20;60.80
9861;DHT22;4969;52.304;4.968;2024-03-02T06:12:56;14.68;62.74
9861;DHT22;4969;52.304;4.968;2024-03-02T06:15:24;14.98;63.78
9861;DHT22;4969;52.304;4.968;2024-03-02T06:17:50;15.71;60.53
9861;DHT22;4969;52.304;4.968;2024-03-02T06:20:17;15.04;62.45
9861;DHT22;4969;52.304;4.968;2024-03-02T06:22:45;15.40;58.78
9861;DHT22;4969;52.304;4.968;2024-03-02T06:25:11;15.30;62.55
9861;DHT22;4969;52.304;4.968;2024-03-02T06:27:38;15.55;61.97
9861;DHT22;4969;52.304;4.968;2024-03-02T06:30:06;15.21;62.04
9861;DHT22;4969;52.304;4.968;2024-03-02T06:32:33;14.79;56.89
9861;DHT22;4969;52.304;4.968;2024-03-02T06:35:00;14.31;62.62
9861;DHT22;4969;52.304;4.968;2024-03-02T06:37:26;15.27;64.24
9861;DHT22;4969;52.304;4.968;2024-03-02T06:39:54;16.10;61.57
9861;DHT22;4969;52.304;4.968;2024-03-02T06:42:21;15.78;61.09
9861;DHT22;4969;52.304;4.968;2024-03-02T06:44:47;15.02;61.02
9861;DHT22;4969;52.304;4.968;2024-03-02T06:47:14;15.10;60.77
9861;DHT22;4969;52.304;4.968;2024-03-02T06:49:42;15.04;62.62
9861;DHT22;4969;52.304;4.968;2024-03-02T06:52:08;15.07;64.13
9861;DHT22;4969;52.304;4.968;2024-03-02T06:54:36;15.47;64.18
9861;DHT22;4969;52.304;4.968;2024-03-02T06:57:04;15.21;64.23
9861;DHT22;4969;52.304;4.968;2024-03-02T06:59:31;15.72;61.37
9861;DHT22;4969;52.304;4.968;2024-03-02T07:01:58;15.97;62.23
9861;DHT22;4969;52.304;4.968;2024-03-02T07:04:25;15.62;61.78
9861;DHT22;4969;52.304;4.968;2024-03-02T07:06:51;15.37;60.57
9861;DHT22;4969;52.304;4.968;2024-03-02T07:09:18;14.83;61.74
9861;DHT22;4969;52.304;4.968;2024-03-02T07:11:47;15.13;63.22
9861;DHT22;4969;52.304;4.968;2024-03-02T07:14:15;15.54;61.21
9861;DHT22;4969;52.304;4.968;2024-03-02T07:16:42;15.51;61.00
9861;DHT22;4969;52.304;4.968;2024-03-02T07:19:08;15.72;61.86
9861;DHT22;4969;52.304;4.968;2024-03-02T07:21:35;16.23;61.03
9861;DHT22;4969;52.304;4.968;2024-03-02T07:24:01;15.81;59.72
9861;DHT22;4969;52.304;4.968;2024-03-02T07:26:29;15.53;60.44
9861;DHT22;4969;52.304;4.968;2024-03-02T07:28:57;16.10;60.54
9861;DHT22;4969;52.304;4.968;2024-03-02T07:31:25;15.99;60.67
9861;DHT22;4969;52.304;4.968;2024-03-02T07:33:51;16.00;58.94
9861;DHT22;4969;52.304;4.968;2024-03-02T07:36:18;16.14;60.10
9861;DHT22;4969;52.304;4.968;2024-03-02T07:38:45;15.50;60.81
9861;DHT22;4969;52.304;4.968;2024-03-02T07:41:15;15.93;59.77
9861;DHT22;4969;52.304;4.968;2024-03-02T07:43:42;14.98;60.42
9861;DHT22;4969;52.304;4.968;2024-03-02T07:46:08;15.26;62.64
9861;DHT22;4969;52.304;4.968;2024-03-02T07:48:36;14.72;63.03
9861;DHT22;4969;52.304;4.968;2024-03-02T07:51:03;15.61;61.76
9861;DHT22;4969;52.304;4.968;2024-03-02T07:53:30;15.79;60.60
9861;DHT22;4969;52.304;4.968;2024-03-02T07:55:56;16.00;58.22
9861;DHT22;4969;52.304;4.968;2024-03-02T07:58:27;15.97;59.69
9861;DHT22;4969;52.304;4.968;2024-03-02T08:00:54;16.41;59.35
9861;DHT22;4969;52.304;4.968;2024-03-02T08:03:21;16.31;58.12
9861;DHT22;4969;52.304;4.968;2024-03-02T08:05:49;16.68;58.60
9861;DHT22;4969;52.304;4.968;2024-03-02T08:08:15;16.26;56.51
9861;DHT22;4969;52.304;4.968;2024-03-02T08:10:42;15.10;61.39
9861;DHT22;4969;52.304;4.968;2024-03-02T08:13:08;14.98;57.35
9861;DHT22;4969;52.304;4.968;2024-03-02T08:15:35;15.20;59.91
9861;DHT22;4969;52.304;4.968;2024-03-02T08:18:01;15.31;60.14
9861;DHT22;4969;52.304;4.968;2024-03-02T08:20:28;15.68;57.96
9861;DHT22;4969;52.304;4.968;2024-03-02T08:22:56;15.30;61.03
9861;DHT22;4969;52.304;4.968;2024-03-02T08:25:22;15.13;61.37
9861;DHT22;4969;52.304;4.968;2024-03-02T08:27:49;15.85;56.81
9861;DHT22;4969;52.304;4.968;2024-03-02T08:30:16;16.37;55.87
9861;DHT22;4969;52.304;4.968;2024-03-02T08:32:43;16.86;56.26
9861;DHT22;4969;52.304;4.968;2024-03-02T08:35:10;16.77;57.87
9861;DHT22;4969;52.304;4.968;2024-03-02T08:37:38;16.55;54.15
9861;DHT22;4969;52.304;4.968;2024-03-02T08:40:08;16.73;57.76
9861;DHT22;4969;52.304;4.968;2024-03-02T08:42:35;17.21;54.47
9861;DHT22;4969;52.304;4.968;2024-03-02T08:45:02;16.38;55.62
9861;DHT22;4969;52.304;4.968;2024-03-02T08:47:29;16.42;59.61
9861;DHT22;4969;52.304;4.968;2024-03-02T08:49:56;16.88;58.38
9861;DHT22;4969;52.304;4.968;2024-03-02T08:52:22;16.36;56.48
9861;DHT22;4969;52.304;4.968;2024-03-02T08:54:49;16.96;58.33
9861;DHT22;4969;52.304;4.968;2024-03-02T08:57:17;16.86;58.21
9861;DHT22;4969;52.304;4.968;2024-03-02T08:59:43;16.00;59.08
9861;DHT22;4969;52.304;4.968;2024-03-02T09:02:10;16.49;56.98
9861;DHT22;4969;52.304;4.968;2024-03-02T09:04:37;16.31;57.23
9861;DHT22;4969;52.304;4.968;2024-03-02T09:07:04;16.69;59.01
9861;DHT22;4969;52.304;4.968;2024-03-02T09:09:30;16.85;56.08
9861;DHT22;4969;52.304;4.968;2024-03-02T09:11:58;17.00;55.27
9861;DHT22;4969;52.304;4.968;2024-03-02T09:14:25;17.00;57.16
9861;DHT22;4969;52.304;4.968;2024-03-02T09:16:52;17.31;57.17
9861;DHT22;4969;52.304;4.968;2024-03-02T09:19:19;17.49;56.92
9861;DHT22;4969;52.304;4.968;2024-03-02T09:21:45;17.42;55.43
9861;DHT22;4969;52.304;4.968;2024-03-02T09:24:12;17.27;56.58
9861;DHT22;4969;52.304;4.968;2024-03-02T09:26:39;17.12;55.88
9861;DHT22;4969;52.304;4.968;2024-03-02T09:29:05;17.17;57.73
9861;DHT22;4969;52.304;4.968;2024-03-02T09:31:33;16.71;57.80
9861;DHT22;4969;52.304;4.968;2024-03-02T09:34:05;16.79;58.40
9861;DHT22;4969;52.304;4.968;2024-03-02T09:36:31;16.73;56.74
9861;DHT22;4969;52.304;4.968;2024-03-02T09:38:58;16.17;59.38
9861;DHT22;4969;52.304;4.968;2024-03-02T09:41:25;16.61;59.36
9861;DHT22;4969;52.304;4.968;2024-03-02T09:43:52;16.99;57.85
9861;DHT22;4969;52.304;4.968;2024-03-02T09:46:19;16.59;56.86
9861;DHT22;4969;52.304;4.968;2024-03-02T09:48:47;16.83;55.60
9861;DHT22;4969;52.304;4.968;2024-03-02T09:51:14;16.72;55.52
9861;DHT22;4969;52.304;4.968;2024-03-02T09:53:45;16.66;59.46
9861;DHT22;4969;52.304;4.968;2024-03-02T09:56:12;16.88;56.31
9861;DHT22;4969;52.304;4.968;2024-03-02T09:58:41;16.30;55.09
9861;DHT22;4969;52.304;4.968;2024-03-02T10:01:07;16.55;57.89
9861;DHT22;4969;52.304;4.968;2024-03-02T10:03:36;16.96;55.12
9861;DHT22;4969;52.304;4.968;2024-03-02T10:06:20;17.02;57.13
9861;DHT22;4969;52.304;4.968;2024-03-02T10:08:47;16.83;55.32
9861;DHT22;4969;52.304;4.968;2024-03-02T10:11:26;17.16;55.56
9861;DHT22;4969;52.304;4.968;2024-03-02T10:14:04;16.62;51.13
9861;DHT22;4969;52.304;4.968;2024-03-02T10:16:33;16.59;57.59
9861;DHT22;4969;52.304;4.968;2024-03-02T10:19:15;17.14;53.93
9861;DHT22;4969;52.304;4.968;2024-03-02T10:21:43;17.59;52.92
9861;DHT22;4969;52.304;4.968;2024-03-02T10:24:10;17.38;56.74
9861;DHT22;4969;52.304;4.968;2024-03-02T10:26:38;17.13;56.79
9861;DHT22;4969;52.304;4.968;2024-03-02T10:29:04;17.54;56.98
9861;DHT22;4969;52.304;4.968;2024-03-02T10:31:31;16.95;57.35
9861;DHT22;4969;52.304;4.968;2024-03-02T10:33:58;16.98;57.42
9861;DHT22;4969;52.304;4.968;2024-03-02T10:36:25;17.38;55.23
9861;DHT22;4969;52.304;4.968;2024-03-02T10:38:56;17.38;55.59
9861;DHT22;4969;52.304;4.968;2024-03-02T10:41:26;17.57;53.55
9861;DHT22;4969;52.304;4.968;2024-03-02T10:43:53;17.04;52.81
9861;DHT22;4969;52.304;4.968;2024-03-02T10:46:27;17.64;54.44
9861;DHT22;4969;52.304;4.968;2024-03-02T10:48:54;17.74;53.39
9861;DHT22;4969;52.304;4.968;2024-03-02T10:51:20;17.20;53.39
9861;DHT22;4969;52.304;4.968;2024-03-02T10:53:47;16.91;55.54
9861;DHT22;4969;52.304;4.968;2024-03-02T10:56:28;17.16;54.26
9861;DHT22;4969;52.304;4.968;2024-03-02T10:58:59;16.69;53.13
9861;DHT22;4969;52.304;4.968;2024-03-02T11:01:29;16.68;50.30
9861;DHT22;4969;52.304;4.968;2024-03-02T11:03:56;17.61;53.75
9861;DHT22;4969;52.304;4.968;2024-03-02T11:06:23;17.49;53.51
9861;DHT22;4969;52.304;4.968;2024-03-02T11:08:53;17.17;49.28
9861;DHT22;4969;52.304;4.968;2024-03-02T11:11:29;16.98;52.94
9861;DHT22;4969;52.304;4.968;2024-03-02T11:13:57;17.64;55.54
9861;DHT22;4969;52.304;4.968;2024-03-02T11:16:32;17.75;49.57
9861;DHT22;4969;52.304;4.968;2024-03-02T11:19:01;17.23;54.55
9861;DHT22;4969;52.304;4.968;2024-03-02T11:21:29;17.10;56.37
9861;DHT22;4969;52.304;4.968;2024-03-02T11:23:58;17.23;56.24
9861;DHT22;4969;52.304;4.968;2024-03-02T11:26:26;16.61;55.51
9861;DHT22;4969;52.304;4.968;2024-03-02T11:28:53;17.13;55.13
9861;DHT22;4969;52.304;4.968;2024-03-02T11:31:21;16.61;52.63
9861;DHT22;4969;52.304;4.968;2024-03-02T11:33:47;17.03;54.26
9861;DHT22;4969;52.304;4.968;2024-03-02T11:36:15;16.85;57.03
9861;DHT22;4969;52.304;4.968;2024-03-02T11:38:43;17.61;52.72
9861;DHT22;4969;52.304;4.968;2024-03-02T11:41:11;17.28;52.70
9861;DHT22;4969;52.304;4.968;2024-03-02T11:43:41;17.03;55.40
9861;DHT22;4969;52.304;4.968;2024-03-02T11:46:10;16.92;56.59
9861;DHT22;4969;52.304;4.968;2024-03-02T11:48:39;16.61;50.53
9861;DHT22;4969;52.304;4.968;2024-03-02T11:51:06;16.61;56.82
9861;DHT22;4969;52.304;4.968;2024-03-02T11:53:33;16.89;56.49
9861;DHT22;4969;52.304;4.968;2024-03-02T11:56:02;17.21;46.83
9861;DHT22;4969;52.304;4.968;2024-03-02T11:58:31;17.02;52.78
9861;DHT22;4969;52.304;4.968;2024-03-02T12:01:00;17.32;55.61
9861;DHT22;4969;52.304;4.968;2024-03-02T12:03:27;16.96;52.12
9861;DHT22;4969;52.304;4.968;2024-03-02T12:05:55;16.48;56.64
9861;DHT22;4969;52.304;4.968;2024-03-02T12:08:22;17.37;55.97
9861;DHT22;4969;52.304;4.968;2024-03-02T12:10:56;17.49;55.22
9861;DHT22;4969;52.304;4.968;2024-03-02T12:13:22;17.67;49.64
9861;DHT22;4969;52.304;4.968;2024-03-02T12:15:53;17.54;48.37
9861;DHT22;4969;52.304;4.968;2024-03-02T12:18:21;17.00;50.51
9861;DHT22;4969;52.304;4.968;2024-03-02T12:20:49;16.52;53.78
9861;DHT22;4969;52.304;4.968;2024-03-02T12:23:18;16.64;55.37
9861;DHT22;4969;52.304;4.968;2024-03-02T12:25:45;16.88;55.29
9861;DHT22;4969;52.304;4.968;2024-03-02T12:28:12;16.51;52.07
9861;DHT22;4969;52.304;4.968;2024-03-02T12:30:38;16.16;50.69
9861;DHT22;4969;52.304;4.968;2024-03-02T12:33:05;16.58;56.14
9861;DHT22;4969;52.304;4.968;2024-03-02T12:35:33;16.27;50.16
9861;DHT22;4969;52.304;4.968;2024-03-02T12:37:59;16.83;57.06
9861;DHT22;4969;52.304;4.968;2024-03-02T12:40:26;16.69;54.50
9861;DHT22;4969;52.304;4.968;2024-03-02T12:42:52;16.80;56.97
9861;DHT22;4969;52.304;4.968;2024-03-02T12:45:19;17.03;53.89
9861;DHT22;4969;52.304;4.968;2024-03-02T12:47:49;17.26;52.28
9861;DHT22;4969;52.304;4.968;2024-03-02T12:50:16;17.23;52.45
9861;DHT22;4969;52.304;4.968;2024-03-02T12:52:44;16.66;56.42
9861;DHT22;4969;52.304;4.968;2024-03-02T12:55:17;16.80;55.59
9861;DHT22;4969;52.304;4.968;2024-03-02T12:57:43;16.92;56.18
9861;DHT22;4969;52.304;4.968;2024-03-02T13:00:11;16.59;52.99
9861;DHT22;4969;52.304;4.968;2024-03-02T13:02:40;16.65;48.36
9861;DHT22;4969;52.304;4.968;2024-03-02T13:05:08;16.55;55.13
9861;DHT22;4969;52.304;4.968;2024-03-02T13:07:36;16.77;52.28
9861;DHT22;4969;52.304;4.968;2024-03-02T13:10:06;16.65;56.09
9861;DHT22;4969;52.304;4.968;2024-03-02T13:12:35;16.85;56.19
9861;DHT22;4969;52.304;4.968;2024-03-02T13:15:02;17.07;55.88
9861;DHT22;4969;52.304;4.968;2024-03-02T13:17:30;16.96;54.92
9861;DHT22;4969;52.304;4.968;2024-03-02T13:19:59;17.17;49.56
9861;DHT22;4969;52.304;4.968;2024-03-02T13:22:26;17.52;53.34
9861;DHT22;4969;52.304;4.968;2024-03-02T13:24:53;17.35;50.23
9861;DHT22;4969;52.304;4.968;2024-03-02T13:27:21;16.93;56.29
9861;DHT22;4969;52.304;4.968;2024-03-02T13:29:48;17.40;52.90
9861;DHT22;4969;52.304;4.968;2024-03-02T13:32:14;16.69;51.94
9861;DHT22;4969;52.304;4.968;2024-03-02T13:34:41;17.20;54.16
9861;DHT22;4969;52.304;4.968;2024-03-02T13:37:08;16.92;51.71
9861;DHT22;4969;52.304;4.968;2024-03-02T13:39:34;17.07;55.62
9861;DHT22;4969;52.304;4.968;2024-03-02T13:42:06;17.27;54.58
9861;DHT22;4969;52.304;4.968;2024-03-02T13:44:35;17.30;52.41
9861;DHT22;4969;52.304;4.968;2024-03-02T13:47:02;17.26;56.20
9861;DHT22;4969;52.304;4.968;2024-03-02T13:49:29;17.38;54.57
9861;DHT22;4969;52.304;4.968;2024-03-02T13:52:01;17.32;48.98
9861;DHT22;4969;52.304;4.968;2024-03-02T13:54:29;17.04;56.68
9861;DHT22;4969;52.304;4.968;2024-03-02T13:56:56;17.23;51.03
9861;DHT22;4969;52.304;4.968;2024-03-02T13:59:24;17.61;54.60
9861;DHT22;4969;52.304;4.968;2024-03-02T14:01:52;17.48;50.46
9861;DHT22;4969;52.304;4.968;2024-03-02T14:04:19;17.26;49.07
9861;DHT22;4969;52.304;4.968;2024-03-02T14:06:45;17.10;50.66
9861;DHT22;4969;52.304;4.968;2024-03-02T14:09:15;16.98;54.55
9861;DHT22;4969;52.304;4.968;2024-03-02T14:11:44;17.30;48.47
9861;DHT22;4969;52.304;4.968;2024-03-02T14:14:11;17.13;54.57
9861;DHT22;4969;52.304;4.968;2024-03-02T14:16:37;17.24;51.78
9861;DHT22;4969;52.304;4.968;2024-03-02T14:19:05;17.30;51.86
9861;DHT22;4969;52.304;4.968;2024-03-02T14:21:32;17.38;55.31
9861;DHT22;4969;52.304;4.968;2024-03-02T14:24:01;17.35;52.58
9861;DHT22;4969;52.304;4.968;2024-03-02T14:26:27;17.26;55.78
9861;DHT22;4969;52.304;4.968;2024-03-02T14:28:54;17.45;53.28
9861;DHT22;4969;52.304;4.968;2024-03-02T14:31:21;17.32;52.44
9861;DHT22;4969;52.304;4.968;2024-03-02T14:33:47;17.62;51.14
9861;DHT22;4969;52.304;4.968;2024-03-02T14:36:15;17.69;51.97
9861;DHT22;4969;52.304;4.968;2024-03-02T14:38:42;18.13;54.13
9861;DHT22;4969;52.304;4.968;2024-03-02T14:41:09;18.28;54.90
9861;DHT22;4969;52.304;4.968;2024-03-02T14:43:36;18.27;53.82
9861;DHT22;4969;52.304;4.968;2024-03-02T14:46:03;18.21;54.24
9861;DHT22;4969;52.304;4.968;2024-03-02T14:48:30;17.96;50.27
9861;DHT22;4969;52.304;4.968;2024-03-02T14:50:57;17.48;52.96
9861;DHT22;4969;52.304;4.968;2024-03-02T14:53:25;17.52;52.56
9861;DHT22;4969;52.304;4.968;2024-03-02T14:55:52;17.78;56.06
9861;DHT22;4969;52.304;4.968;2024-03-02T14:58:18;17.41;53.35
9861;DHT22;4969;52.304;4.968;2024-03-02T15:00:45;17.59;49.97
9861;DHT22;4969;52.304;4.968;2024-03-02T15:03:11;17.57;51.63
9861;DHT22;4969;52.304;4.968;2024-03-02T15:05:38;17.09;50.51
9861;DHT22;4969;52.304;4.968;2024-03-02T15:08:06;17.23;50.73
9861;DHT22;4969;52.304;4.968;2024-03-02T15:10:34;17.31;54.04
9861;DHT22;4969;52.304;4.968;2024-03-02T15:13:01;17.35;54.14
9861;DHT22;4969;52.304;4.968;2024-03-02T15:15:28;17.58;53.91
9861;DHT22;4969;52.304;4.968;2024-03-02T15:17:55;17.64;54.85
9861;DHT22;4969;52.304;4.968;2024-03-02T15:20:21;17.59;51.92
9861;DHT22;4969;52.304;4.968;2024-03-02T15:22:48;17.26;52.54
9861;DHT22;4969;52.304;4.968;2024-03-02T15:25:14;17.17;54.98
9861;DHT22;4969;52.304;4.968;2024-03-02T15:27:43;17.16;54.86
9861;DHT22;4969;52.304;4.968;2024-03-02T15:30:10;17.44;54.84
9861;DHT22;4969;52.304;4.968;2024-03-02T15:32:36;16.99;51.01
9861;DHT22;4969;52.304;4.968;2024-03-02T15:35:04;17.32;54.27
9861;DHT22;4969;52.304;4.968;2024-03-02T15:37:31;17.57;52.97
9861;DHT22;4969;52.304;4.968;2024-03-02T15:39:58;17.57;53.73
9861;DHT22;4969;52.304;4.968;2024-03-02T15:42:31;17.44;53.85
9861;DHT22;4969;52.304;4.968;2024-03-02T15:44:59;17.72;53.67
9861;DHT22;4969;52.304;4.968;2024-03-02T15:47:25;17.72;53.31
9861;DHT22;4969;52.304;4.968;2024-03-02T15:49:52;17.76;52.71
9861;DHT22;4969;52.304;4.968;2024-03-02T15:52:19;17.82;53.00
9861;DHT22;4969;52.304;4.968;2024-03-02T15:54:46;17.81;52.59
9861;DHT22;4969;52.304;4.968;2024-03-02T15:57:14;17.65;53.00
9861;DHT22;4969;52.304;4.968;2024-03-02T15:59:40;17.72;53.11
9861;DHT22;4969;52.304;4.968;2024-03-02T16:02:08;17.58;52.08
9861;DHT22;4969;52.304;4.968;2024-03-02T16:04:35;17.51;52.74
9861;DHT22;4969;52.304;4.968;2024-03-02T16:07:01;17.35;52.65